createdAt,value
2022-12-18T00:01:49.498Z,-9.00
2022-12-18T00:04:35.342Z,-9.10
2022-12-18T00:07:20.866Z,-9.00
2022-12-18T00:10:06.983Z,-9.00
2022-12-18T00:12:52.367Z,-9.00
2022-12-18T00:15:40.026Z,-9.00
2022-12-18T00:18:25.547Z,-9.10
2022-12-18T00:21:13.021Z,-9.10
2022-12-18T00:23:59.448Z,-9.10
2022-12-18T00:26:45.091Z,-9.20
2022-12-18T00:29:30.505Z,-9.30
2022-12-18T00:32:16.006Z,-9.30
2022-12-18T00:35:01.521Z,-9.40
2022-12-18T00:37:47.107Z,-9.40
2022-12-18T00:40:32.640Z,-9.50
2022-12-18T00:43:18.063Z,-9.50
2022-12-18T00:46:04.020Z,-9.50
2022-12-18T00:48:50.693Z,-9.50
2022-12-18T00:51:36.183Z,-9.60
2022-12-18T00:54:21.713Z,-9.60
2022-12-18T00:57:07.146Z,-9.60
2022-12-18T00:59:52.879Z,-9.70
2022-12-18T01:02:38.499Z,-9.70
2022-12-18T01:05:23.916Z,-9.70
2022-12-18T01:08:09.348Z,-9.80
2022-12-18T01:10:54.906Z,-9.80
2022-12-18T01:13:41.848Z,-9.80
2022-12-18T01:16:27.517Z,-10.00
2022-12-18T01:19:12.931Z,-10.10
2022-12-18T01:21:59.068Z,-10.10
2022-12-18T01:24:44.547Z,-10.10
2022-12-18T01:27:29.981Z,-10.20
2022-12-18T01:30:15.386Z,-10.10
2022-12-18T01:33:00.971Z,-10.20
2022-12-18T01:35:46.496Z,-10.10
2022-12-18T01:38:32.172Z,-10.10
2022-12-18T01:41:20.548Z,-10.20
2022-12-18T01:44:44.636Z,-10.20
2022-12-18T01:47:50.582Z,-10.20
2022-12-18T01:50:43.932Z,-10.20
2022-12-18T01:53:29.843Z,-10.20
2022-12-18T01:56:17.758Z,-10.20
2022-12-18T01:59:07.277Z,-10.20
2022-12-18T02:01:53.113Z,-10.20
2022-12-18T02:04:39.116Z,-10.20
2022-12-18T02:07:41.281Z,-10.10
2022-12-18T02:11:02.269Z,-10.20
2022-12-18T02:13:57.030Z,-10.10
2022-12-18T02:17:04.342Z,-10.10
2022-12-18T02:20:20.098Z,-10.20
2022-12-18T02:23:32.676Z,-10.20
2022-12-18T02:26:23.450Z,-10.20
2022-12-18T02:29:17.924Z,-10.20
2022-12-18T02:32:09.576Z,-10.10
2022-12-18T02:34:58.381Z,-10.10
2022-12-18T02:37:46.993Z,-10.00
2022-12-18T02:40:33.286Z,-10.20
2022-12-18T02:43:18.698Z,-10.20
2022-12-18T02:46:37.536Z,-10.20
2022-12-18T02:49:49.120Z,-10.10
2022-12-18T02:52:53.342Z,-10.00
2022-12-18T02:55:45.798Z,-10.10
2022-12-18T02:58:43.441Z,-10.00
2022-12-18T03:01:47.520Z,-10.00
2022-12-18T03:04:50.744Z,-9.90
2022-12-18T03:08:04.955Z,-9.80
2022-12-18T03:11:00.918Z,-9.80
2022-12-18T03:13:57.554Z,-9.90
2022-12-18T03:16:44.769Z,-9.80
2022-12-18T03:19:34.126Z,-9.80
2022-12-18T03:22:21.169Z,-9.70
2022-12-18T03:25:11.261Z,-9.70
2022-12-18T03:27:59.894Z,-9.70
2022-12-18T03:30:49.083Z,-9.70
2022-12-18T03:33:46.516Z,-9.70
2022-12-18T03:36:32.827Z,-9.70
2022-12-18T03:39:18.568Z,-9.70
2022-12-18T03:42:31.128Z,-9.60
2022-12-18T03:45:28.504Z,-9.60
2022-12-18T03:48:39.750Z,-9.50
2022-12-18T03:51:33.250Z,-9.50
2022-12-18T03:54:20.112Z,-9.60
2022-12-18T03:57:14.711Z,-9.60
2022-12-18T04:00:18.754Z,-9.60
2022-12-18T04:03:05.817Z,-9.70
2022-12-18T04:05:53.544Z,-9.80
2022-12-18T04:08:41.497Z,-9.80
2022-12-18T04:11:27.326Z,-9.80
2022-12-18T04:14:17.706Z,-9.80
2022-12-18T04:17:04.422Z,-9.80
2022-12-18T04:19:50.255Z,-9.80
2022-12-18T04:22:36.551Z,-10.00
2022-12-18T04:25:22.385Z,-10.20
2022-12-18T04:28:08.023Z,-10.20
2022-12-18T04:30:53.438Z,-10.20
2022-12-18T04:33:39.298Z,-10.20
2022-12-18T04:36:28.428Z,-10.10
2022-12-18T04:39:14.180Z,-10.20
2022-12-18T04:41:59.894Z,-10.20
2022-12-18T04:44:45.693Z,-10.20
2022-12-18T04:47:32.217Z,-10.20
2022-12-18T04:50:18.343Z,-10.30
2022-12-18T04:53:03.563Z,-10.30
2022-12-18T04:55:49.004Z,-10.50
2022-12-18T04:58:34.931Z,-10.50
2022-12-18T05:01:20.353Z,-10.70
2022-12-18T05:04:06.689Z,-10.70
2022-12-18T05:06:52.208Z,-10.70
2022-12-18T05:09:37.520Z,-10.80
2022-12-18T05:12:26.192Z,-10.80
2022-12-18T05:15:11.669Z,-10.80
2022-12-18T05:17:58.971Z,-10.60
2022-12-18T05:20:45.256Z,-10.70
2022-12-18T05:23:30.616Z,-10.70
2022-12-18T05:26:18.262Z,-10.70
2022-12-18T05:29:04.246Z,-10.80
2022-12-18T05:31:49.871Z,-10.80
2022-12-18T05:34:35.251Z,-10.70
2022-12-18T05:37:20.604Z,-10.80
2022-12-18T05:40:06.712Z,-10.90
2022-12-18T05:42:52.681Z,-10.90
2022-12-18T05:45:39.396Z,-10.90
2022-12-18T05:48:25.204Z,-10.80
2022-12-18T05:51:13.992Z,-10.70
2022-12-18T05:53:59.462Z,-10.80
2022-12-18T05:56:48.630Z,-10.90
2022-12-18T05:59:34.586Z,-10.80
2022-12-18T06:02:22.184Z,-10.80
2022-12-18T06:05:08.341Z,-11.00
2022-12-18T06:07:53.772Z,-11.10
2022-12-18T06:10:39.757Z,-11.10
2022-12-18T06:13:25.341Z,-11.10
2022-12-18T06:16:11.656Z,-11.20
2022-12-18T06:18:58.991Z,-11.40
2022-12-18T06:21:45.752Z,-11.30
2022-12-18T06:24:31.544Z,-11.40
2022-12-18T06:27:17.224Z,-11.40
2022-12-18T06:30:04.226Z,-11.30
2022-12-18T06:32:56.421Z,-11.30
2022-12-18T06:35:42.471Z,-11.30
2022-12-18T06:38:28.295Z,-11.40
2022-12-18T06:41:16.004Z,-11.30
2022-12-18T06:44:01.558Z,-11.30
2022-12-18T06:46:46.971Z,-11.20
2022-12-18T06:49:32.465Z,-11.20
2022-12-18T06:52:17.927Z,-11.20
2022-12-18T06:55:03.675Z,-11.30
2022-12-18T06:57:49.016Z,-11.30
2022-12-18T07:00:34.794Z,-11.30
2022-12-18T07:03:20.576Z,-11.50
2022-12-18T07:06:06.180Z,-11.60
2022-12-18T07:08:52.616Z,-11.60
2022-12-18T07:11:38.113Z,-11.50
2022-12-18T07:14:23.365Z,-11.60
2022-12-18T07:17:09.017Z,-11.60
2022-12-18T07:19:54.843Z,-11.50
2022-12-18T07:22:40.454Z,-11.50
2022-12-18T07:25:25.857Z,-11.50
2022-12-18T07:28:17.031Z,-11.50
2022-12-18T07:31:11.170Z,-11.50
2022-12-18T07:33:57.551Z,-11.40
2022-12-18T07:36:43.157Z,-11.40
2022-12-18T07:39:28.696Z,-11.40
2022-12-18T07:42:32.152Z,-11.30
2022-12-18T07:45:17.653Z,-11.30
2022-12-18T07:48:03.009Z,-11.30
2022-12-18T07:50:48.343Z,-11.30
2022-12-18T07:53:35.496Z,-11.20
2022-12-18T07:56:30.340Z,-11.20
2022-12-18T07:59:16.791Z,-11.20
2022-12-18T08:02:02.480Z,-11.20
2022-12-18T08:04:48.140Z,-11.10
2022-12-18T08:07:33.421Z,-11.10
2022-12-18T08:10:19.482Z,-11.00
2022-12-18T08:13:05.463Z,-11.00
2022-12-18T08:16:05.520Z,-11.00
2022-12-18T08:18:53.711Z,-11.00
2022-12-18T08:21:39.289Z,-10.90
2022-12-18T08:24:24.903Z,-10.80
2022-12-18T08:27:29.002Z,-10.70
2022-12-18T08:30:15.125Z,-10.50
2022-12-18T08:33:00.563Z,-10.50
2022-12-18T08:35:46.326Z,-10.50
2022-12-18T08:38:33.090Z,-10.30
2022-12-18T08:41:19.315Z,-10.10
2022-12-18T08:44:23.435Z,-9.90
2022-12-18T08:47:09.636Z,-9.60
2022-12-18T08:49:55.082Z,-9.30
2022-12-18T08:52:40.570Z,-9.10
2022-12-18T08:55:26.224Z,-8.90
2022-12-18T08:58:11.793Z,-8.70
2022-12-18T09:01:05.360Z,-8.60
2022-12-18T09:03:51.595Z,-8.40
2022-12-18T09:06:37.916Z,-8.30
2022-12-18T09:09:24.634Z,-8.20
2022-12-18T09:12:10.847Z,-8.10
2022-12-18T09:14:57.593Z,-7.90
2022-12-18T09:17:43.449Z,-7.70
2022-12-18T09:20:30.944Z,-7.50
2022-12-18T09:23:16.483Z,-7.40
2022-12-18T09:26:02.479Z,-7.30
2022-12-18T09:28:48.621Z,-7.20
2022-12-18T09:31:35.026Z,-7.10
2022-12-18T09:34:22.798Z,-7.20
2022-12-18T09:37:08.470Z,-7.30
2022-12-18T09:39:54.102Z,-7.30
2022-12-18T09:42:39.687Z,-7.30
2022-12-18T09:45:25.933Z,-7.30
2022-12-18T09:48:23.412Z,-7.10
2022-12-18T09:51:20.091Z,-6.80
2022-12-18T09:54:17.293Z,-6.40
2022-12-18T09:57:03.436Z,-6.20
2022-12-18T09:59:55.487Z,-5.90
2022-12-18T10:02:42.565Z,-5.70
2022-12-18T10:05:59.397Z,-5.40
2022-12-18T10:09:00.673Z,-5.10
2022-12-18T10:12:11.965Z,-4.90
2022-12-18T10:15:06.453Z,-4.80
2022-12-18T10:18:34.667Z,-4.60
2022-12-18T10:21:26.234Z,-4.40
2022-12-18T10:24:30.978Z,-4.20
2022-12-18T10:27:26.626Z,-4.10
2022-12-18T10:30:22.043Z,-3.90
2022-12-18T10:33:10.297Z,-3.70
2022-12-18T10:35:56.702Z,-3.60
2022-12-18T10:38:42.887Z,-3.50
2022-12-18T10:41:29.547Z,-3.20
2022-12-18T10:44:28.332Z,-3.10
2022-12-18T10:47:19.027Z,-3.00
2022-12-18T10:50:05.061Z,-3.00
2022-12-18T10:52:56.857Z,-2.90
2022-12-18T10:55:46.939Z,-2.80
2022-12-18T10:58:39.014Z,-2.60
2022-12-18T11:01:24.623Z,-2.40
2022-12-18T11:04:10.714Z,-2.40
2022-12-18T11:07:01.888Z,-2.20
2022-12-18T11:10:01.843Z,-2.00
2022-12-18T11:12:48.432Z,-2.00
2022-12-18T11:15:34.869Z,-2.20
2022-12-18T11:18:31.622Z,-2.20
2022-12-18T11:21:17.696Z,-2.20
2022-12-18T11:24:03.325Z,-2.00
2022-12-18T11:26:52.670Z,-1.70
2022-12-18T11:29:46.554Z,-1.50
2022-12-18T11:32:37.474Z,-1.10
2022-12-18T11:35:40.983Z,-0.90
2022-12-18T11:38:30.736Z,-0.60
2022-12-18T11:41:44.921Z,-0.40
2022-12-18T11:44:51.808Z,-0.20
2022-12-18T11:48:04.885Z,0.10
2022-12-18T11:50:54.048Z,0.30
2022-12-18T11:53:40.981Z,0.30
2022-12-18T11:56:37.340Z,0.10
2022-12-18T11:59:37.833Z,-0.10
2022-12-18T12:02:41.682Z,-0.10
2022-12-18T12:06:07.977Z,-0.20
2022-12-18T12:09:22.633Z,-0.50
2022-12-18T12:12:49.193Z,-0.50
2022-12-18T12:15:46.834Z,-0.70
2022-12-18T12:18:53.149Z,-0.60
2022-12-18T12:21:45.446Z,-0.50
2022-12-18T12:24:46.777Z,-0.50
2022-12-18T12:27:52.430Z,-0.70
2022-12-18T12:31:14.511Z,-0.80
2022-12-18T12:34:05.926Z,-1.00
2022-12-18T12:37:20.575Z,-1.00
2022-12-18T12:40:26.833Z,-1.10
2022-12-18T12:43:32.060Z,-1.20
2022-12-18T12:46:20.856Z,-1.30
2022-12-18T12:49:20.505Z,-1.40
2022-12-18T12:52:14.816Z,-1.40
2022-12-18T12:55:02.946Z,-1.20
2022-12-18T12:58:18.639Z,-1.20
2022-12-18T13:01:17.272Z,-1.20
2022-12-18T13:04:24.888Z,-1.10
2022-12-18T13:07:24.674Z,-1.00
2022-12-18T13:10:22.467Z,-1.00
2022-12-18T13:13:13.497Z,-1.00
2022-12-18T13:16:08.574Z,-1.10
2022-12-18T13:18:59.611Z,-1.10
2022-12-18T13:21:54.611Z,-1.00
2022-12-18T13:24:40.510Z,-0.90
2022-12-18T13:27:44.491Z,-0.90
2022-12-18T13:30:33.045Z,-0.80
2022-12-18T13:33:18.587Z,-0.80
2022-12-18T13:36:25.846Z,-0.80
2022-12-18T13:39:28.872Z,-0.90
2022-12-18T13:42:37.115Z,-0.90
2022-12-18T13:45:43.376Z,-0.90
2022-12-18T13:48:34.300Z,-1.00
2022-12-18T13:51:21.542Z,-1.10
2022-12-18T13:54:27.136Z,-1.20
2022-12-18T13:57:33.460Z,-1.30
2022-12-18T14:00:30.604Z,-1.40
2022-12-18T14:03:22.560Z,-1.40
2022-12-18T14:06:09.973Z,-1.50
2022-12-18T14:08:56.480Z,-1.70
2022-12-18T14:11:48.408Z,-1.60
2022-12-18T14:14:34.720Z,-1.60
2022-12-18T14:17:20.826Z,-1.50
2022-12-18T14:20:18.416Z,-1.70
2022-12-18T14:23:04.059Z,-1.70
2022-12-18T14:25:49.873Z,-1.80
2022-12-18T14:28:45.244Z,-1.80
2022-12-18T14:31:32.729Z,-1.70
2022-12-18T14:34:18.579Z,-1.70
2022-12-18T14:37:04.862Z,-1.70
2022-12-18T14:39:59.332Z,-1.70
2022-12-18T14:42:46.531Z,-1.80
2022-12-18T14:45:42.379Z,-1.90
2022-12-18T14:48:41.219Z,-2.10
2022-12-18T14:51:29.141Z,-2.20
2022-12-18T14:54:19.019Z,-2.10
2022-12-18T14:57:16.298Z,-2.20
2022-12-18T15:00:07.921Z,-2.20
2022-12-18T15:02:57.979Z,-2.40
2022-12-18T15:05:44.284Z,-2.60
2022-12-18T15:08:35.902Z,-2.60
2022-12-18T15:11:47.040Z,-2.70
2022-12-18T15:14:38.353Z,-2.90
2022-12-18T15:17:28.559Z,-3.00
2022-12-18T15:20:15.079Z,-3.00
2022-12-18T15:23:00.403Z,-3.00
2022-12-18T15:25:47.837Z,-3.10
2022-12-18T15:28:57.096Z,-3.20
2022-12-18T15:31:42.674Z,-3.30
2022-12-18T15:34:29.191Z,-3.40
2022-12-18T15:37:14.442Z,-3.50
2022-12-18T15:39:59.959Z,-3.50
2022-12-18T15:43:05.509Z,-3.50
2022-12-18T15:45:50.984Z,-3.60
2022-12-18T15:48:42.321Z,-3.50
2022-12-18T15:51:34.037Z,-3.60
2022-12-18T15:54:39.403Z,-3.50
2022-12-18T15:57:24.908Z,-3.50
2022-12-18T16:00:13.524Z,-3.50
2022-12-18T16:02:59.088Z,-3.60
2022-12-18T16:05:44.705Z,-3.70
2022-12-18T16:08:31.099Z,-3.80
2022-12-18T16:11:38.992Z,-3.90
2022-12-18T16:14:30.111Z,-3.90
2022-12-18T16:17:16.473Z,-4.00
2022-12-18T16:20:02.198Z,-4.10
2022-12-18T16:22:49.018Z,-4.00
2022-12-18T16:25:34.560Z,-4.00
2022-12-18T16:28:20.029Z,-4.00
2022-12-18T16:31:05.977Z,-4.00
2022-12-18T16:34:10.725Z,-4.00
2022-12-18T16:37:01.697Z,-4.10
2022-12-18T16:39:50.542Z,-4.10
2022-12-18T16:42:37.633Z,-4.00
2022-12-18T16:45:23.202Z,-3.90
2022-12-18T16:48:08.894Z,-3.90
2022-12-18T16:51:02.272Z,-3.90
2022-12-18T16:53:48.338Z,-3.90
2022-12-18T16:56:34.161Z,-3.90
2022-12-18T16:59:20.049Z,-3.90
2022-12-18T17:02:05.867Z,-3.90
2022-12-18T17:04:55.090Z,-4.00
2022-12-18T17:07:40.822Z,-4.00
2022-12-18T17:10:26.197Z,-3.90
2022-12-18T17:13:11.795Z,-3.90
2022-12-18T17:16:06.775Z,-3.90
2022-12-18T17:18:55.474Z,-3.90
2022-12-18T17:21:41.848Z,-3.70
2022-12-18T17:24:31.489Z,-3.70
2022-12-18T17:27:20.493Z,-3.70
2022-12-18T17:30:06.457Z,-3.80
2022-12-18T17:32:52.367Z,-3.70
2022-12-18T17:35:37.919Z,-3.80
2022-12-18T17:38:23.543Z,-3.80
2022-12-18T17:41:10.909Z,-3.80
2022-12-18T17:44:04.187Z,-3.80
2022-12-18T17:46:49.964Z,-3.70
2022-12-18T17:49:35.854Z,-3.60
2022-12-18T17:52:21.687Z,-3.60
2022-12-18T17:55:07.815Z,-3.60
2022-12-18T17:57:53.877Z,-3.60
2022-12-18T18:00:39.757Z,-3.60
2022-12-18T18:03:25.771Z,-3.70
2022-12-18T18:06:11.730Z,-3.70
2022-12-18T18:08:57.588Z,-3.60
2022-12-18T18:12:02.450Z,-3.70
2022-12-18T18:14:48.108Z,-3.60
2022-12-18T18:17:33.705Z,-3.60
2022-12-18T18:20:22.471Z,-3.50
2022-12-18T18:23:08.495Z,-3.50
2022-12-18T18:25:54.357Z,-3.40
2022-12-18T18:28:41.429Z,-3.40
2022-12-18T18:31:28.457Z,-3.40
2022-12-18T18:34:16.510Z,-3.50
2022-12-18T18:37:03.230Z,-3.50
2022-12-18T18:39:48.860Z,-3.50
2022-12-18T18:42:34.480Z,-3.50
2022-12-18T18:45:19.822Z,-3.50
2022-12-18T18:48:05.847Z,-3.40
2022-12-18T18:50:58.819Z,-3.40
2022-12-18T18:53:46.361Z,-3.30
2022-12-18T18:59:38.255Z,-3.50
2022-12-18T19:02:23.874Z,-3.50
2022-12-18T19:05:10.023Z,-3.60
2022-12-18T19:07:55.953Z,-3.60
2022-12-18T19:10:41.820Z,-3.60
2022-12-18T19:13:30.267Z,-3.60
2022-12-18T19:16:15.864Z,-3.60
2022-12-18T19:19:02.306Z,-3.50
2022-12-18T19:21:50.096Z,-3.40
2022-12-18T19:24:36.222Z,-3.50
2022-12-18T19:27:21.594Z,-3.60
2022-12-18T19:30:07.774Z,-3.50
2022-12-18T19:32:53.375Z,-3.50
2022-12-18T19:35:38.857Z,-3.50
2022-12-18T19:38:24.827Z,-3.60
2022-12-18T19:41:10.734Z,-3.70
2022-12-18T19:43:57.060Z,-3.80
2022-12-18T19:46:43.048Z,-3.90
2022-12-18T19:49:28.614Z,-3.90
2022-12-18T19:52:16.123Z,-3.80
2022-12-18T19:55:01.880Z,-3.80
2022-12-18T19:57:47.520Z,-3.80
2022-12-18T20:00:34.317Z,-3.80
2022-12-18T20:03:28.710Z,-3.80
2022-12-18T20:06:35.674Z,-3.80
2022-12-18T20:09:21.854Z,-3.80
2022-12-18T20:12:08.459Z,-3.70
2022-12-18T20:14:54.123Z,-3.70
2022-12-18T20:17:40.258Z,-3.70
2022-12-18T20:20:26.735Z,-3.70
2022-12-18T20:23:12.506Z,-3.70
2022-12-18T20:25:58.410Z,-3.60
2022-12-18T20:28:44.107Z,-3.70
2022-12-18T20:31:30.121Z,-3.60
2022-12-18T20:34:15.588Z,-3.60
2022-12-18T20:37:01.835Z,-3.50
2022-12-18T20:39:48.237Z,-3.40
2022-12-18T20:42:34.261Z,-3.40
2022-12-18T20:45:19.802Z,-3.40
2022-12-18T20:48:05.414Z,-3.20
2022-12-18T20:51:05.746Z,-3.20
2022-12-18T20:53:52.716Z,-3.20
2022-12-18T20:56:38.174Z,-3.30
2022-12-18T20:59:25.568Z,-3.20
2022-12-18T21:02:13.271Z,-3.10
2022-12-18T21:04:59.114Z,-3.10
2022-12-18T21:07:44.668Z,-3.10
2022-12-18T21:10:30.283Z,-3.00
2022-12-18T21:13:16.656Z,-2.90
2022-12-18T21:16:04.350Z,-2.90
2022-12-18T21:18:51.958Z,-2.90
2022-12-18T21:21:41.794Z,-2.90
2022-12-18T21:24:32.021Z,-3.00
2022-12-18T21:27:18.869Z,-3.10
2022-12-18T21:30:04.801Z,-3.10
2022-12-18T21:32:50.615Z,-3.10
2022-12-18T21:35:36.431Z,-3.20
2022-12-18T21:38:21.894Z,-3.10
2022-12-18T21:41:08.769Z,-3.20
2022-12-18T21:44:06.984Z,-3.40
2022-12-18T21:46:57.430Z,-3.40
2022-12-18T21:49:47.221Z,-3.40
2022-12-18T21:52:32.976Z,-3.40
2022-12-18T21:55:18.522Z,-3.30
2022-12-18T21:58:04.585Z,-3.30
2022-12-18T22:00:50.214Z,-3.30
2022-12-18T22:03:36.250Z,-3.30
2022-12-18T22:06:22.525Z,-3.30
2022-12-18T22:09:08.690Z,-3.20
2022-12-18T22:11:54.950Z,-3.00
2022-12-18T22:14:40.570Z,-3.10
2022-12-18T22:17:26.799Z,-3.00
2022-12-18T22:20:12.873Z,-3.10
2022-12-18T22:22:59.553Z,-3.10
2022-12-18T22:25:51.921Z,-2.90
2022-12-18T22:28:56.912Z,-2.90
2022-12-18T22:31:42.899Z,-3.00
2022-12-18T22:34:29.200Z,-2.90
2022-12-18T22:37:15.138Z,-2.90
2022-12-18T22:40:03.179Z,-2.80
2022-12-18T22:42:49.235Z,-2.80
2022-12-18T22:45:38.440Z,-2.80
2022-12-18T22:48:24.966Z,-2.80
2022-12-18T22:51:18.114Z,-2.50
2022-12-18T22:54:04.428Z,-2.50
2022-12-18T22:56:51.306Z,-2.40
2022-12-18T22:59:36.995Z,-2.40
2022-12-18T23:02:23.132Z,-2.40
2022-12-18T23:05:09.371Z,-2.40
2022-12-18T23:07:55.097Z,-2.30
2022-12-18T23:10:40.794Z,-2.30
2022-12-18T23:13:27.538Z,-2.40
2022-12-18T23:16:15.247Z,-2.40
2022-12-18T23:19:01.188Z,-2.40
2022-12-18T23:21:46.634Z,-2.40
2022-12-18T23:24:32.786Z,-2.40
2022-12-18T23:27:18.572Z,-2.40
2022-12-18T23:30:04.732Z,-2.40
2022-12-18T23:32:50.407Z,-2.50
2022-12-18T23:35:35.853Z,-2.50
2022-12-18T23:38:21.272Z,-2.40
2022-12-18T23:41:12.232Z,-2.40
2022-12-18T23:43:59.164Z,-2.40
2022-12-18T23:46:44.599Z,-2.40
2022-12-18T23:49:30.457Z,-2.30
2022-12-18T23:52:16.353Z,-2.40
2022-12-18T23:55:01.956Z,-2.40
2022-12-18T23:57:47.401Z,-2.40
